sensor_id;sensor_type;location;lat;lon;timestamp;temperature;humidity
25188;DHT22;13141;50.414;8.050;2023-06-04T00:01:08;15.60;73.10
25188;DHT22;13141;50.414;8.050;2023-06-04T00:03:34;15.60;73.80
25188;DHT22;13141;50.414;8.050;2023-06-04T00:06:00;15.60;73.50
25188;DHT22;13141;50.414;8.050;2023-06-04T00:08:25;15.60;74.00
25188;DHT22;13141;50.414;8.050;2023-06-04T00:10:51;15.60;76.00
25188;DHT22;13141;50.414;8.050;2023-06-04T00:13:18;15.40;77.90
25188;DHT22;13141;50.414;8.050;2023-06-04T00:15:44;15.40;75.70
25188;DHT22;13141;50.414;8.050;2023-06-04T00:18:09;15.20;78.20
25188;DHT22;13141;50.414;8.050;2023-06-04T00:20:35;15.00;79.50
25188;DHT22;13141;50.414;8.050;2023-06-04T00:23:00;14.90;82.00
25188;DHT22;13141;50.414;8.050;2023-06-04T00:25:26;14.60;84.60
25188;DHT22;13141;50.414;8.050;2023-06-04T00:27:52;14.40;84.70
25188;DHT22;13141;50.414;8.050;2023-06-04T00:30:19;14.50;86.40
25188;DHT22;13141;50.414;8.050;2023-06-04T00:32:45;14.40;87.80
25188;DHT22;13141;50.414;8.050;2023-06-04T00:35:10;14.20;87.50
25188;DHT22;13141;50.414;8.050;2023-06-04T00:37:36;14.20;86.60
25188;DHT22;13141;50.414;8.050;2023-06-04T00:40:02;14.20;87.80
25188;DHT22;13141;50.414;8.050;2023-06-04T00:42:27;14.20;88.10
25188;DHT22;13141;50.414;8.050;2023-06-04T00:44:53;14.10;89.40
25188;DHT22;13141;50.414;8.050;2023-06-04T00:47:20;14.30;89.10
25188;DHT22;13141;50.414;8.050;2023-06-04T00:49:46;14.00;90.00
25188;DHT22;13141;50.414;8.050;2023-06-04T00:52:14;14.00;89.90
25188;DHT22;13141;50.414;8.050;2023-06-04T00:54:40;13.70;91.10
25188;DHT22;13141;50.414;8.050;2023-06-04T00:57:06;14.10;91.70
25188;DHT22;13141;50.414;8.050;2023-06-04T00:59:32;14.10;91.80
25188;DHT22;13141;50.414;8.050;2023-06-04T01:02:01;14.20;91.40
25188;DHT22;13141;50.414;8.050;2023-06-04T01:04:32;14.20;91.60
25188;DHT22;13141;50.414;8.050;2023-06-04T01:07:00;14.30;92.00
25188;DHT22;13141;50.414;8.050;2023-06-04T01:09:27;14.30;92.30
25188;DHT22;13141;50.414;8.050;2023-06-04T01:11:54;14.30;90.50
25188;DHT22;13141;50.414;8.050;2023-06-04T01:14:19;14.10;92.20
25188;DHT22;13141;50.414;8.050;2023-06-04T01:16:49;14.00;91.70
25188;DHT22;13141;50.414;8.050;2023-06-04T01:19:32;14.00;92.90
25188;DHT22;13141;50.414;8.050;2023-06-04T01:22:04;13.90;93.20
25188;DHT22;13141;50.414;8.050;2023-06-04T01:24:35;13.90;93.50
25188;DHT22;13141;50.414;8.050;2023-06-04T01:27:04;14.00;93.80
25188;DHT22;13141;50.414;8.050;2023-06-04T01:29:30;13.90;94.10
25188;DHT22;13141;50.414;8.050;2023-06-04T01:31:56;13.90;94.10
25188;DHT22;13141;50.414;8.050;2023-06-04T01:34:22;13.80;93.60
25188;DHT22;13141;50.414;8.050;2023-06-04T01:36:49;13.70;94.60
25188;DHT22;13141;50.414;8.050;2023-06-04T01:39:15;13.60;95.00
25188;DHT22;13141;50.414;8.050;2023-06-04T01:41:41;13.50;95.30
25188;DHT22;13141;50.414;8.050;2023-06-04T01:44:06;13.50;95.80
25188;DHT22;13141;50.414;8.050;2023-06-04T01:46:32;13.40;95.70
25188;DHT22;13141;50.414;8.050;2023-06-04T01:48:57;13.40;95.00
25188;DHT22;13141;50.414;8.050;2023-06-04T01:51:23;13.40;95.60
25188;DHT22;13141;50.414;8.050;2023-06-04T01:53:50;13.40;95.90
25188;DHT22;13141;50.414;8.050;2023-06-04T01:56:15;13.40;96.60
25188;DHT22;13141;50.414;8.050;2023-06-04T01:58:41;13.30;96.60
25188;DHT22;13141;50.414;8.050;2023-06-04T02:01:07;13.20;96.70
25188;DHT22;13141;50.414;8.050;2023-06-04T02:03:32;13.20;97.00
25188;DHT22;13141;50.414;8.050;2023-06-04T02:05:58;13.20;96.70
25188;DHT22;13141;50.414;8.050;2023-06-04T02:08:24;13.10;96.90
25188;DHT22;13141;50.414;8.050;2023-06-04T02:10:51;13.00;96.60
25188;DHT22;13141;50.414;8.050;2023-06-04T02:13:17;12.80;97.50
25188;DHT22;13141;50.414;8.050;2023-06-04T02:15:42;12.80;97.40
25188;DHT22;13141;50.414;8.050;2023-06-04T02:18:13;12.80;97.80
25188;DHT22;13141;50.414;8.050;2023-06-04T02:20:39;12.80;97.70
25188;DHT22;13141;50.414;8.050;2023-06-04T02:23:05;12.80;98.10
25188;DHT22;13141;50.414;8.050;2023-06-04T02:25:31;12.70;97.50
25188;DHT22;13141;50.414;8.050;2023-06-04T02:27:57;12.70;97.30
25188;DHT22;13141;50.414;8.050;2023-06-04T02:30:23;12.50;98.00
25188;DHT22;13141;50.414;8.050;2023-06-04T02:32:49;12.40;97.70
25188;DHT22;13141;50.414;8.050;2023-06-04T02:35:15;12.40;98.10
25188;DHT22;13141;50.414;8.050;2023-06-04T02:37:40;12.40;98.50
25188;DHT22;13141;50.414;8.050;2023-06-04T02:40:07;12.30;98.00
25188;DHT22;13141;50.414;8.050;2023-06-04T02:42:33;12.40;98.70
25188;DHT22;13141;50.414;8.050;2023-06-04T02:45:00;12.20;98.70
25188;DHT22;13141;50.414;8.050;2023-06-04T02:47:27;12.10;98.60
25188;DHT22;13141;50.414;8.050;2023-06-04T02:49:53;12.00;98.40
25188;DHT22;13141;50.414;8.050;2023-06-04T02:52:18;11.90;99.00
25188;DHT22;13141;50.414;8.050;2023-06-04T02:54:44;12.00;98.50
25188;DHT22;13141;50.414;8.050;2023-06-04T02:57:09;12.10;98.70
25188;DHT22;13141;50.414;8.050;2023-06-04T02:59:35;12.20;98.20
25188;DHT22;13141;50.414;8.050;2023-06-04T03:02:03;12.20;98.90
25188;DHT22;13141;50.414;8.050;2023-06-04T03:04:29;12.20;98.80
25188;DHT22;13141;50.414;8.050;2023-06-04T03:06:55;12.20;98.60
25188;DHT22;13141;50.414;8.050;2023-06-04T03:09:20;12.30;98.40
25188;DHT22;13141;50.414;8.050;2023-06-04T03:11:46;12.30;98.60
25188;DHT22;13141;50.414;8.050;2023-06-04T03:14:12;12.30;98.30
25188;DHT22;13141;50.414;8.050;2023-06-04T03:16:38;12.30;98.20
25188;DHT22;13141;50.414;8.050;2023-06-04T03:19:05;12.30;98.30
25188;DHT22;13141;50.414;8.050;2023-06-04T03:21:30;12.20;98.70
25188;DHT22;13141;50.414;8.050;2023-06-04T03:23:56;12.20;98.70
25188;DHT22;13141;50.414;8.050;2023-06-04T03:26:22;12.10;98.80
25188;DHT22;13141;50.414;8.050;2023-06-04T03:28:47;12.10;98.80
25188;DHT22;13141;50.414;8.050;2023-06-04T03:31:13;12.10;99.40
25188;DHT22;13141;50.414;8.050;2023-06-04T03:33:39;12.00;99.20
25188;DHT22;13141;50.414;8.050;2023-06-04T03:36:06;12.00;99.10
25188;DHT22;13141;50.414;8.050;2023-06-04T03:38:31;11.90;99.40
25188;DHT22;13141;50.414;8.050;2023-06-04T03:40:57;11.80;99.70
25188;DHT22;13141;50.414;8.050;2023-06-04T03:43:23;11.80;99.30
25188;DHT22;13141;50.414;8.050;2023-06-04T03:45:48;11.70;99.70
25188;DHT22;13141;50.414;8.050;2023-06-04T03:48:14;11.70;99.70
25188;DHT22;13141;50.414;8.050;2023-06-04T03:50:39;11.60;99.50
25188;DHT22;13141;50.414;8.050;2023-06-04T03:53:06;11.60;99.90
25188;DHT22;13141;50.414;8.050;2023-06-04T03:55:32;11.60;99.80
25188;DHT22;13141;50.414;8.050;2023-06-04T03:57:58;11.60;99.90
25188;DHT22;13141;50.414;8.050;2023-06-04T04:00:23;11.60;99.90
25188;DHT22;13141;50.414;8.050;2023-06-04T04:02:49;11.60;99.70
25188;DHT22;13141;50.414;8.050;2023-06-04T04:05:15;11.60;99.80
25188;DHT22;13141;50.414;8.050;2023-06-04T04:07:40;11.60;99.40
25188;DHT22;13141;50.414;8.050;2023-06-04T04:10:08;11.60;99.50
25188;DHT22;13141;50.414;8.050;2023-06-04T04:12:33;11.60;99.80
25188;DHT22;13141;50.414;8.050;2023-06-04T04:14:59;11.60;99.90
25188;DHT22;13141;50.414;8.050;2023-06-04T04:17:26;11.60;99.70
25188;DHT22;13141;50.414;8.050;2023-06-04T04:19:51;11.40;99.90
25188;DHT22;13141;50.414;8.050;2023-06-04T04:22:17;11.30;99.90
25188;DHT22;13141;50.414;8.050;2023-06-04T04:24:43;11.30;99.90
25188;DHT22;13141;50.414;8.050;2023-06-04T04:27:11;11.40;99.90
25188;DHT22;13141;50.414;8.050;2023-06-04T04:29:37;11.30;99.90
25188;DHT22;13141;50.414;8.050;2023-06-04T04:32:03;11.20;99.90
25188;DHT22;13141;50.414;8.050;2023-06-04T04:34:29;11.20;99.90
25188;DHT22;13141;50.414;8.050;2023-06-04T04:36:55;11.30;99.90
25188;DHT22;13141;50.414;8.050;2023-06-04T04:39:22;11.40;99.90
25188;DHT22;13141;50.414;8.050;2023-06-04T04:41:48;11.50;99.90
25188;DHT22;13141;50.414;8.050;2023-06-04T04:44:15;11.50;99.90
25188;DHT22;13141;50.414;8.050;2023-06-04T04:46:41;11.60;99.90
25188;DHT22;13141;50.414;8.050;2023-06-04T04:49:07;11.60;99.90
25188;DHT22;13141;50.414;8.050;2023-06-04T04:51:32;11.70;99.90
25188;DHT22;13141;50.414;8.050;2023-06-04T04:53:58;11.70;99.90
25188;DHT22;13141;50.414;8.050;2023-06-04T04:56:24;11.70;99.90
25188;DHT22;13141;50.414;8.050;2023-06-04T04:58:50;11.70;99.90
25188;DHT22;13141;50.414;8.050;2023-06-04T05:01:17;11.80;99.90
25188;DHT22;13141;50.414;8.050;2023-06-04T05:03:42;11.70;99.90
25188;DHT22;13141;50.414;8.050;2023-06-04T05:06:08;11.70;99.90
25188;DHT22;13141;50.414;8.050;2023-06-04T05:08:34;11.70;99.90
25188;DHT22;13141;50.414;8.050;2023-06-04T05:10:59;11.80;99.90
25188;DHT22;13141;50.414;8.050;2023-06-04T05:13:25;11.90;99.90
25188;DHT22;13141;50.414;8.050;2023-06-04T05:15:51;11.90;99.90
25188;DHT22;13141;50.414;8.050;2023-06-04T05:18:18;11.90;99.90
25188;DHT22;13141;50.414;8.050;2023-06-04T05:20:44;11.90;99.90
25188;DHT22;13141;50.414;8.050;2023-06-04T05:23:09;11.90;99.90
25188;DHT22;13141;50.414;8.050;2023-06-04T05:25:35;12.00;99.90
25188;DHT22;13141;50.414;8.050;2023-06-04T05:28:01;12.10;99.90
25188;DHT22;13141;50.414;8.050;2023-06-04T05:30:26;12.20;99.90
25188;DHT22;13141;50.414;8.050;2023-06-04T05:32:52;12.20;99.90
25188;DHT22;13141;50.414;8.050;2023-06-04T05:35:19;12.20;99.90
25188;DHT22;13141;50.414;8.050;2023-06-04T05:37:45;12.30;99.90
25188;DHT22;13141;50.414;8.050;2023-06-04T05:40:11;12.20;99.60
25188;DHT22;13141;50.414;8.050;2023-06-04T05:42:37;12.20;99.90
25188;DHT22;13141;50.414;8.050;2023-06-04T05:45:03;12.10;99.90
25188;DHT22;13141;50.414;8.050;2023-06-04T05:47:29;12.10;99.90
25188;DHT22;13141;50.414;8.050;2023-06-04T05:49:54;12.10;99.90
25188;DHT22;13141;50.414;8.050;2023-06-04T05:52:22;12.30;99.90
25188;DHT22;13141;50.414;8.050;2023-06-04T05:54:48;12.20;99.90
25188;DHT22;13141;50.414;8.050;2023-06-04T05:57:14;12.30;99.90
25188;DHT22;13141;50.414;8.050;2023-06-04T05:59:40;12.40;99.90
25188;DHT22;13141;50.414;8.050;2023-06-04T06:02:05;12.50;99.90
25188;DHT22;13141;50.414;8.050;2023-06-04T06:04:31;12.50;99.90
25188;DHT22;13141;50.414;8.050;2023-06-04T06:06:56;12.60;99.80
25188;DHT22;13141;50.414;8.050;2023-06-04T06:09:24;12.30;99.90
25188;DHT22;13141;50.414;8.050;2023-06-04T06:11:49;12.80;99.90
25188;DHT22;13141;50.414;8.050;2023-06-04T06:14:15;12.80;99.60
25188;DHT22;13141;50.414;8.050;2023-06-04T06:16:41;12.90;99.90
25188;DHT22;13141;50.414;8.050;2023-06-04T06:19:06;13.00;99.40
25188;DHT22;13141;50.414;8.050;2023-06-04T06:21:32;13.20;99.60
25188;DHT22;13141;50.414;8.050;2023-06-04T06:23:58;13.30;98.90
25188;DHT22;13141;50.414;8.050;2023-06-04T06:26:25;13.40;99.00
25188;DHT22;13141;50.414;8.050;2023-06-04T06:28:50;13.70;99.20
25188;DHT22;13141;50.414;8.050;2023-06-04T06:31:16;13.80;98.80
25188;DHT22;13141;50.414;8.050;2023-06-04T06:33:41;13.90;98.70
25188;DHT22;13141;50.414;8.050;2023-06-04T06:36:07;13.90;98.80
25188;DHT22;13141;50.414;8.050;2023-06-04T06:38:33;14.00;98.80
25188;DHT22;13141;50.414;8.050;2023-06-04T06:40:59;14.20;98.90
25188;DHT22;13141;50.414;8.050;2023-06-04T06:43:26;14.10;98.50
25188;DHT22;13141;50.414;8.050;2023-06-04T06:45:52;14.10;98.40
25188;DHT22;13141;50.414;8.050;2023-06-04T06:48:17;14.20;98.70
25188;DHT22;13141;50.414;8.050;2023-06-04T06:50:43;14.30;98.60
25188;DHT22;13141;50.414;8.050;2023-06-04T06:53:09;14.40;98.10
25188;DHT22;13141;50.414;8.050;2023-06-04T06:55:34;14.50;98.10
25188;DHT22;13141;50.414;8.050;2023-06-04T06:58:00;14.60;98.00
25188;DHT22;13141;50.414;8.050;2023-06-04T07:00:27;14.90;98.40
25188;DHT22;13141;50.414;8.050;2023-06-04T07:02:53;14.90;98.20
25188;DHT22;13141;50.414;8.050;2023-06-04T07:05:19;14.90;98.00
25188;DHT22;13141;50.414;8.050;2023-06-04T07:07:44;15.10;98.00
25188;DHT22;13141;50.414;8.050;2023-06-04T07:10:10;15.40;97.90
25188;DHT22;13141;50.414;8.050;2023-06-04T07:12:36;15.40;97.60
25188;DHT22;13141;50.414;8.050;2023-06-04T07:15:01;15.80;97.50
25188;DHT22;13141;50.414;8.050;2023-06-04T07:17:28;16.00;97.60
25188;DHT22;13141;50.414;8.050;2023-06-04T07:19:54;16.40;97.30
25188;DHT22;13141;50.414;8.050;2023-06-04T07:22:19;16.70;96.40
25188;DHT22;13141;50.414;8.050;2023-06-04T07:24:45;17.10;95.40
25188;DHT22;13141;50.414;8.050;2023-06-04T07:27:12;17.40;94.00
25188;DHT22;13141;50.414;8.050;2023-06-04T07:29:37;17.70;93.40
25188;DHT22;13141;50.414;8.050;2023-06-04T07:32:04;18.00;92.60
25188;DHT22;13141;50.414;8.050;2023-06-04T07:34:31;18.30;93.50
25188;DHT22;13141;50.414;8.050;2023-06-04T07:36:57;18.60;93.10
25188;DHT22;13141;50.414;8.050;2023-06-04T07:39:22;18.90;93.40
25188;DHT22;13141;50.414;8.050;2023-06-04T07:41:48;19.10;91.30
25188;DHT22;13141;50.414;8.050;2023-06-04T07:44:14;19.30;91.50
25188;DHT22;13141;50.414;8.050;2023-06-04T07:46:39;19.50;90.20
25188;DHT22;13141;50.414;8.050;2023-06-04T07:49:05;19.70;91.00
25188;DHT22;13141;50.414;8.050;2023-06-04T07:51:32;19.90;89.00
25188;DHT22;13141;50.414;8.050;2023-06-04T07:53:58;20.20;90.10
25188;DHT22;13141;50.414;8.050;2023-06-04T07:56:23;20.40;86.70
25188;DHT22;13141;50.414;8.050;2023-06-04T07:58:49;20.60;86.60
25188;DHT22;13141;50.414;8.050;2023-06-04T08:01:15;20.80;86.60
25188;DHT22;13141;50.414;8.050;2023-06-04T08:03:41;21.00;87.10
25188;DHT22;13141;50.414;8.050;2023-06-04T08:06:06;21.20;85.70
25188;DHT22;13141;50.414;8.050;2023-06-04T08:08:33;21.50;86.30
25188;DHT22;13141;50.414;8.050;2023-06-04T08:10:59;21.90;83.30
25188;DHT22;13141;50.414;8.050;2023-06-04T08:13:25;21.90;83.90
25188;DHT22;13141;50.414;8.050;2023-06-04T08:15:51;22.10;79.90
25188;DHT22;13141;50.414;8.050;2023-06-04T08:18:19;22.30;79.10
25188;DHT22;13141;50.414;8.050;2023-06-04T08:20:45;22.40;78.90
25188;DHT22;13141;50.414;8.050;2023-06-04T08:23:10;22.60;75.50
25188;DHT22;13141;50.414;8.050;2023-06-04T08:25:37;22.50;75.20
25188;DHT22;13141;50.414;8.050;2023-06-04T08:28:03;23.00;74.90
25188;DHT22;13141;50.414;8.050;2023-06-04T08:30:32;23.10;75.50
25188;DHT22;13141;50.414;8.050;2023-06-04T08:32:57;23.40;73.90
25188;DHT22;13141;50.414;8.050;2023-06-04T08:35:23;23.50;70.30
25188;DHT22;13141;50.414;8.050;2023-06-04T08:37:49;23.60;72.10
25188;DHT22;13141;50.414;8.050;2023-06-04T08:40:14;23.70;70.50
25188;DHT22;13141;50.414;8.050;2023-06-04T08:42:43;24.00;70.00
25188;DHT22;13141;50.414;8.050;2023-06-04T08:45:10;24.20;70.40
25188;DHT22;13141;50.414;8.050;2023-06-04T08:47:37;24.40;65.20
25188;DHT22;13141;50.414;8.050;2023-06-04T08:50:06;24.50;63.70
25188;DHT22;13141;50.414;8.050;2023-06-04T08:52:35;24.70;64.20
25188;DHT22;13141;50.414;8.050;2023-06-04T08:55:01;24.90;66.30
25188;DHT22;13141;50.414;8.050;2023-06-04T08:57:30;25.10;61.50
25188;DHT22;13141;50.414;8.050;2023-06-04T08:59:57;25.30;60.80
25188;DHT22;13141;50.414;8.050;2023-06-04T09:02:23;25.50;59.80
25188;DHT22;13141;50.414;8.050;2023-06-04T09:04:54;25.60;60.70
25188;DHT22;13141;50.414;8.050;2023-06-04T09:07:20;25.80;57.50
25188;DHT22;13141;50.414;8.050;2023-06-04T09:09:47;25.90;60.00
25188;DHT22;13141;50.414;8.050;2023-06-04T09:12:17;26.10;56.30
25188;DHT22;13141;50.414;8.050;2023-06-04T09:14:47;26.30;56.70
25188;DHT22;13141;50.414;8.050;2023-06-04T09:17:14;26.60;57.50
25188;DHT22;13141;50.414;8.050;2023-06-04T09:19:40;26.70;55.60
25188;DHT22;13141;50.414;8.050;2023-06-04T09:22:06;26.70;52.90
25188;DHT22;13141;50.414;8.050;2023-06-04T09:24:39;26.90;53.90
25188;DHT22;13141;50.414;8.050;2023-06-04T09:27:09;27.20;54.60
25188;DHT22;13141;50.414;8.050;2023-06-04T09:29:35;27.50;52.30
25188;DHT22;13141;50.414;8.050;2023-06-04T09:32:01;27.60;52.20
25188;DHT22;13141;50.414;8.050;2023-06-04T09:34:29;27.80;53.80
25188;DHT22;13141;50.414;8.050;2023-06-04T09:36:55;28.00;51.60
25188;DHT22;13141;50.414;8.050;2023-06-04T09:39:21;28.30;53.10
25188;DHT22;13141;50.414;8.050;2023-06-04T09:41:57;28.40;51.60
25188;DHT22;13141;50.414;8.050;2023-06-04T09:44:23;28.40;50.40
25188;DHT22;13141;50.414;8.050;2023-06-04T09:46:54;28.50;50.60
25188;DHT22;13141;50.414;8.050;2023-06-04T09:49:19;28.80;48.90
25188;DHT22;13141;50.414;8.050;2023-06-04T09:51:48;28.70;49.80
25188;DHT22;13141;50.414;8.050;2023-06-04T09:54:14;28.80;47.20
25188;DHT22;13141;50.414;8.050;2023-06-04T09:56:40;28.90;48.00
25188;DHT22;13141;50.414;8.050;2023-06-04T09:59:08;29.10;48.50
25188;DHT22;13141;50.414;8.050;2023-06-04T10:01:38;29.10;46.20
25188;DHT22;13141;50.414;8.050;2023-06-04T10:04:06;29.20;49.30
25188;DHT22;13141;50.414;8.050;2023-06-04T10:06:33;29.40;48.10
25188;DHT22;13141;50.414;8.050;2023-06-04T10:09:05;29.60;48.10
25188;DHT22;13141;50.414;8.050;2023-06-04T10:11:34;29.70;47.80
25188;DHT22;13141;50.414;8.050;2023-06-04T10:14:03;29.70;46.90
25188;DHT22;13141;50.414;8.050;2023-06-04T10:16:32;29.80;45.00
25188;DHT22;13141;50.414;8.050;2023-06-04T10:18:59;30.00;46.80
25188;DHT22;13141;50.414;8.050;2023-06-04T10:21:26;30.10;44.90
25188;DHT22;13141;50.414;8.050;2023-06-04T10:23:52;30.20;45.30
25188;DHT22;13141;50.414;8.050;2023-06-04T10:26:19;30.30;44.70
25188;DHT22;13141;50.414;8.050;2023-06-04T10:28:45;30.40;45.30
25188;DHT22;13141;50.414;8.050;2023-06-04T10:31:11;30.50;45.90
25188;DHT22;13141;50.414;8.050;2023-06-04T10:33:38;30.90;46.50
25188;DHT22;13141;50.414;8.050;2023-06-04T10:36:17;31.00;47.20
25188;DHT22;13141;50.414;8.050;2023-06-04T10:38:45;31.00;43.90
25188;DHT22;13141;50.414;8.050;2023-06-04T10:41:15;31.10;46.50
25188;DHT22;13141;50.414;8.050;2023-06-04T10:43:43;31.20;45.10
25188;DHT22;13141;50.414;8.050;2023-06-04T10:46:12;31.40;46.70
25188;DHT22;13141;50.414;8.050;2023-06-04T10:48:45;31.50;45.00
25188;DHT22;13141;50.414;8.050;2023-06-04T10:51:11;31.50;44.40
25188;DHT22;13141;50.414;8.050;2023-06-04T10:53:37;31.50;44.70
25188;DHT22;13141;50.414;8.050;2023-06-04T10:56:08;31.60;44.10
25188;DHT22;13141;50.414;8.050;2023-06-04T10:58:36;31.70;43.50
25188;DHT22;13141;50.414;8.050;2023-06-04T11:01:04;31.90;44.50
25188;DHT22;13141;50.414;8.050;2023-06-04T11:03:35;31.90;41.20
25188;DHT22;13141;50.414;8.050;2023-06-04T11:06:02;31.90;41.20
25188;DHT22;13141;50.414;8.050;2023-06-04T11:08:29;32.00;41.40
25188;DHT22;13141;50.414;8.050;2023-06-04T11:10:58;31.80;41.40
25188;DHT22;13141;50.414;8.050;2023-06-04T11:13:24;32.00;44.00
25188;DHT22;13141;50.414;8.050;2023-06-04T11:15:50;32.30;43.10
25188;DHT22;13141;50.414;8.050;2023-06-04T11:18:18;32.00;38.30
25188;DHT22;13141;50.414;8.050;2023-06-04T11:20:46;32.00;37.40
25188;DHT22;13141;50.414;8.050;2023-06-04T11:23:12;32.20;40.80
25188;DHT22;13141;50.414;8.050;2023-06-04T11:25:38;32.40;43.20
25188;DHT22;13141;50.414;8.050;2023-06-04T11:28:04;32.40;41.00
25188;DHT22;13141;50.414;8.050;2023-06-04T11:30:33;33.00;40.60
25188;DHT22;13141;50.414;8.050;2023-06-04T11:33:04;33.00;39.60
25188;DHT22;13141;50.414;8.050;2023-06-04T11:35:39;33.10;40.10
25188;DHT22;13141;50.414;8.050;2023-06-04T11:38:05;33.10;40.70
25188;DHT22;13141;50.414;8.050;2023-06-04T11:40:31;33.10;40.70
25188;DHT22;13141;50.414;8.050;2023-06-04T11:42:57;33.30;39.00
25188;DHT22;13141;50.414;8.050;2023-06-04T11:45:23;33.40;37.40
25188;DHT22;13141;50.414;8.050;2023-06-04T11:47:50;33.40;40.20
25188;DHT22;13141;50.414;8.050;2023-06-04T11:50:16;33.50;38.80
25188;DHT22;13141;50.414;8.050;2023-06-04T11:52:44;33.50;39.60
25188;DHT22;13141;50.414;8.050;2023-06-04T11:55:13;34.00;38.00
25188;DHT22;13141;50.414;8.050;2023-06-04T11:57:39;34.10;36.70
25188;DHT22;13141;50.414;8.050;2023-06-04T12:00:06;34.10;36.70
25188;DHT22;13141;50.414;8.050;2023-06-04T12:02:32;34.20;40.00
25188;DHT22;13141;50.414;8.050;2023-06-04T12:04:58;34.20;36.20
25188;DHT22;13141;50.414;8.050;2023-06-04T12:07:24;34.10;35.50
25188;DHT22;13141;50.414;8.050;2023-06-04T12:09:51;34.10;37.40
25188;DHT22;13141;50.414;8.050;2023-06-04T12:12:21;34.50;36.60
25188;DHT22;13141;50.414;8.050;2023-06-04T12:14:47;34.50;37.40
25188;DHT22;13141;50.414;8.050;2023-06-04T12:17:13;34.80;34.70
25188;DHT22;13141;50.414;8.050;2023-06-04T12:19:46;33.90;31.60
25188;DHT22;13141;50.414;8.050;2023-06-04T12:22:12;33.70;34.50
25188;DHT22;13141;50.414;8.050;2023-06-04T12:24:46;33.90;34.70
25188;DHT22;13141;50.414;8.050;2023-06-04T12:27:14;34.10;33.40
25188;DHT22;13141;50.414;8.050;2023-06-04T12:29:39;34.20;34.30
25188;DHT22;13141;50.414;8.050;2023-06-04T12:32:07;34.40;35.40
25188;DHT22;13141;50.414;8.050;2023-06-04T12:34:33;34.50;33.30
25188;DHT22;13141;50.414;8.050;2023-06-04T12:36:59;34.60;33.70
25188;DHT22;13141;50.414;8.050;2023-06-04T12:39:25;34.60;34.90
25188;DHT22;13141;50.414;8.050;2023-06-04T12:41:50;34.70;34.00
25188;DHT22;13141;50.414;8.050;2023-06-04T12:44:17;34.90;32.90
25188;DHT22;13141;50.414;8.050;2023-06-04T12:46:43;35.00;31.60
25188;DHT22;13141;50.414;8.050;2023-06-04T12:49:09;34.90;31.20
25188;DHT22;13141;50.414;8.050;2023-06-04T12:51:35;35.00;33.90
25188;DHT22;13141;50.414;8.050;2023-06-04T12:54:01;35.10;34.50
25188;DHT22;13141;50.414;8.050;2023-06-04T12:56:26;35.40;32.80
25188;DHT22;13141;50.414;8.050;2023-06-04T12:58:52;35.50;32.30
25188;DHT22;13141;50.414;8.050;2023-06-04T13:01:19;35.30;32.70
25188;DHT22;13141;50.414;8.050;2023-06-04T13:03:45;35.10;31.80
25188;DHT22;13141;50.414;8.050;2023-06-04T13:06:10;35.60;32.70
25188;DHT22;13141;50.414;8.050;2023-06-04T13:08:36;35.80;31.90
25188;DHT22;13141;50.414;8.050;2023-06-04T13:11:02;35.90;32.90
25188;DHT22;13141;50.414;8.050;2023-06-04T13:13:29;35.70;30.70
25188;DHT22;13141;50.414;8.050;2023-06-04T13:15:54;35.60;30.80
25188;DHT22;13141;50.414;8.050;2023-06-04T13:18:22;35.90;31.90
25188;DHT22;13141;50.414;8.050;2023-06-04T13:20:48;35.70;32.10
25188;DHT22;13141;50.414;8.050;2023-06-04T13:23:14;35.70;31.40
25188;DHT22;13141;50.414;8.050;2023-06-04T13:25:40;35.60;30.80
25188;DHT22;13141;50.414;8.050;2023-06-04T13:28:06;35.90;31.70
25188;DHT22;13141;50.414;8.050;2023-06-04T13:30:32;36.20;32.50
25188;DHT22;13141;50.414;8.050;2023-06-04T13:32:57;36.30;31.60
25188;DHT22;13141;50.414;8.050;2023-06-04T13:35:25;36.40;30.20
25188;DHT22;13141;50.414;8.050;2023-06-04T13:37:51;36.20;30.90
25188;DHT22;13141;50.414;8.050;2023-06-04T13:40:19;36.20;31.90
25188;DHT22;13141;50.414;8.050;2023-06-04T13:42:45;36.10;31.30
25188;DHT22;13141;50.414;8.050;2023-06-04T13:45:11;36.20;31.00
25188;DHT22;13141;50.414;8.050;2023-06-04T13:47:36;36.10;30.90
25188;DHT22;13141;50.414;8.050;2023-06-04T13:50:02;36.30;30.70
25188;DHT22;13141;50.414;8.050;2023-06-04T13:52:32;36.30;30.10
25188;DHT22;13141;50.414;8.050;2023-06-04T13:54:57;36.10;30.70
25188;DHT22;13141;50.414;8.050;2023-06-04T13:57:26;36.20;31.10
25188;DHT22;13141;50.414;8.050;2023-06-04T13:59:52;36.20;30.70
25188;DHT22;13141;50.414;8.050;2023-06-04T14:02:21;36.00;29.50
25188;DHT22;13141;50.414;8.050;2023-06-04T14:04:46;35.80;29.80
25188;DHT22;13141;50.414;8.050;2023-06-04T14:07:12;35.90;29.60
25188;DHT22;13141;50.414;8.050;2023-06-04T14:09:39;36.00;30.30
25188;DHT22;13141;50.414;8.050;2023-06-04T14:12:08;36.00;30.00
25188;DHT22;13141;50.414;8.050;2023-06-04T14:14:34;36.00;30.00
25188;DHT22;13141;50.414;8.050;2023-06-04T14:16:59;36.00;30.00
25188;DHT22;13141;50.414;8.050;2023-06-04T14:19:25;36.10;29.70
25188;DHT22;13141;50.414;8.050;2023-06-04T14:21:53;36.20;30.30
25188;DHT22;13141;50.414;8.050;2023-06-04T14:24:19;36.10;28.90
25188;DHT22;13141;50.414;8.050;2023-06-04T14:26:46;36.00;30.20
25188;DHT22;13141;50.414;8.050;2023-06-04T14:29:12;36.10;31.10
25188;DHT22;13141;50.414;8.050;2023-06-04T14:31:37;36.10;29.40
25188;DHT22;13141;50.414;8.050;2023-06-04T14:34:03;36.00;27.50
25188;DHT22;13141;50.414;8.050;2023-06-04T14:36:31;35.80;29.20
25188;DHT22;13141;50.414;8.050;2023-06-04T14:39:00;36.00;29.50
25188;DHT22;13141;50.414;8.050;2023-06-04T14:41:28;35.90;29.70
25188;DHT22;13141;50.414;8.050;2023-06-04T14:43:55;35.60;29.70
25188;DHT22;13141;50.414;8.050;2023-06-04T14:46:21;35.50;29.30
25188;DHT22;13141;50.414;8.050;2023-06-04T14:48:46;35.80;29.00
25188;DHT22;13141;50.414;8.050;2023-06-04T14:51:12;35.70;30.20
25188;DHT22;13141;50.414;8.050;2023-06-04T14:53:38;35.80;27.70
25188;DHT22;13141;50.414;8.050;2023-06-04T14:56:04;35.40;27.80
25188;DHT22;13141;50.414;8.050;2023-06-04T14:58:29;35.40;28.40
25188;DHT22;13141;50.414;8.050;2023-06-04T15:00:56;35.40;28.90
25188;DHT22;13141;50.414;8.050;2023-06-04T15:03:22;35.60;29.30
25188;DHT22;13141;50.414;8.050;2023-06-04T15:05:48;35.50;29.30
25188;DHT22;13141;50.414;8.050;2023-06-04T15:08:13;35.50;29.40
25188;DHT22;13141;50.414;8.050;2023-06-04T15:10:39;35.60;28.60
25188;DHT22;13141;50.414;8.050;2023-06-04T15:13:05;35.50;29.00
25188;DHT22;13141;50.414;8.050;2023-06-04T15:15:30;35.40;28.80
25188;DHT22;13141;50.414;8.050;2023-06-04T15:17:58;35.20;28.80
25188;DHT22;13141;50.414;8.050;2023-06-04T15:20:23;35.20;29.00
25188;DHT22;13141;50.414;8.050;2023-06-04T15:22:49;35.30;28.90
25188;DHT22;13141;50.414;8.050;2023-06-04T15:25:15;35.30;29.10